Time;durP1;ratioP1;P1;durP2;ratioP2;P2;SDS_P1;SDS_P2;PMS_P1;PMS_P2;Temp;Humidity;BMP_temperature;BMP_pressure;BME280_temperature;BME280_humidity;BME280_pressure;Samples;Min_cycle;Max_cycle;Signal;HPM_P1;HPM_P2
2022/09/19 00:01:26;;;;;;;14.52;1.60;;;11.20;99.90;;;;;;5000001;28;20042;-67
2022/09/19 00:03:55;;;;;;;15.43;1.50;;;11.30;99.90;;;;;;4997798;28;20425;-66
2022/09/19 00:06:21;;;;;;;19.05;1.90;;;11.30;99.90;;;;;;5001492;28;20135;-66
2022/09/19 00:08:47;;;;;;;17.38;1.52;;;11.30;99.90;;;;;;4999810;28;20051;-66
2022/09/19 00:11:16;;;;;;;14.48;1.50;;;11.30;99.90;;;;;;5003132;28;20518;-66
2022/09/19 00:13:45;;;;;;;12.43;1.67;;;11.30;99.90;;;;;;5000173;28;20552;-66
2022/09/19 00:16:12;;;;;;;15.15;1.40;;;11.20;99.90;;;;;;5002239;28;20041;-66
2022/09/19 00:18:38;;;;;;;11.65;1.05;;;11.20;99.90;;;;;;5002539;28;20117;-66
2022/09/19 00:21:04;;;;;;;15.02;1.23;;;11.30;99.90;;;;;;5004646;28;20054;-66
2022/09/19 00:26:17;;;;;;;11.05;1.20;;;11.20;99.90;;;;;;5005358;28;20133;-66
2022/09/19 00:28:45;;;;;;;10.60;0.90;;;11.20;99.90;;;;;;4999727;28;20125;-66
2022/09/19 00:31:18;;;;;;;13.82;1.00;;;11.20;99.90;;;;;;5002992;28;20047;-66
2022/09/19 00:33:46;;;;;;;10.70;1.10;;;11.20;99.90;;;;;;5000346;28;20129;-66
2022/09/19 00:36:13;;;;;;;14.30;1.45;;;11.20;99.90;;;;;;5003142;28;20409;-66
2022/09/19 00:38:39;;;;;;;13.15;1.17;;;11.20;99.90;;;;;;4999669;28;20042;-66
2022/09/19 00:41:06;;;;;;;10.35;1.30;;;11.30;99.90;;;;;;5002548;28;20057;-66
2022/09/19 00:43:51;;;;;;;10.77;1.45;;;11.20;99.90;;;;;;5004199;28;20046;-66
2022/09/19 00:46:18;;;;;;;8.50;1.27;;;11.30;99.90;;;;;;5004922;28;20049;-66
2022/09/19 00:48:49;;;;;;;12.77;1.15;;;11.30;99.90;;;;;;5002166;28;20414;-67
2022/09/19 00:51:38;;;;;;;12.73;1.20;;;11.30;99.90;;;;;;5005028;28;20168;-67
2022/09/19 00:54:11;;;;;;;13.30;1.45;;;11.30;99.90;;;;;;5000883;28;20054;-67
2022/09/19 00:56:42;;;;;;;16.92;1.63;;;11.30;99.90;;;;;;4998851;28;20379;-66
2022/09/19 00:59:08;;;;;;;15.32;1.60;;;11.30;99.90;;;;;;4996856;28;20042;-67
2022/09/19 01:01:34;;;;;;;17.95;1.90;;;11.40;99.90;;;;;;5002669;28;20065;-67
2022/09/19 01:04:01;;;;;;;15.23;1.65;;;11.30;99.90;;;;;;4998031;28;20358;-67
2022/09/19 01:06:44;;;;;;;16.50;1.92;;;11.30;99.90;;;;;;5006044;28;20346;-67
2022/09/19 01:09:36;;;;;;;11.20;1.15;;;11.20;99.90;;;;;;5000806;28;20482;-67
2022/09/19 01:12:08;;;;;;;24.05;1.80;;;11.20;99.90;;;;;;5005876;28;20088;-67
2022/09/19 01:14:54;;;;;;;15.43;1.83;;;11.20;99.90;;;;;;5000180;28;20050;-67
2022/09/19 01:17:28;;;;;;;17.08;1.50;;;11.20;99.90;;;;;;5003416;28;20099;-67
2022/09/19 01:20:18;;;;;;;11.87;1.50;;;11.20;99.90;;;;;;4981655;28;20052;-67
2022/09/19 01:23:15;;;;;;;16.85;1.50;;;11.20;99.90;;;;;;4999729;28;20125;-67
2022/09/19 01:26:16;;;;;;;10.30;1.27;;;11.20;99.90;;;;;;4995955;28;20089;-67
2022/09/19 01:29:11;;;;;;;15.75;1.55;;;11.20;99.90;;;;;;4958696;28;20100;-67
2022/09/19 01:31:43;;;;;;;15.93;1.45;;;11.10;99.90;;;;;;4987555;28;20050;-67
2022/09/19 01:34:17;;;;;;;22.60;2.10;;;11.20;99.90;;;;;;4999293;28;20046;-67
2022/09/19 01:36:58;;;;;;;13.60;2.17;;;11.20;99.90;;;;;;5001222;28;20037;-67
2022/09/19 01:39:27;;;;;;;13.15;1.92;;;11.20;99.90;;;;;;4999484;28;20300;-66
2022/09/19 01:41:54;;;;;;;16.10;1.52;;;11.20;99.90;;;;;;4998540;28;20029;-66
2022/09/19 01:44:22;;;;;;;16.67;2.00;;;11.30;99.90;;;;;;4998579;28;20030;-67
2022/09/19 01:47:16;;;;;;;17.02;1.58;;;11.30;99.90;;;;;;4997681;28;20052;-66
2022/09/19 01:50:00;;;;;;;12.60;1.92;;;11.30;99.90;;;;;;4997974;28;20049;-66
2022/09/19 01:52:35;;;;;;;17.83;2.00;;;11.30;99.90;;;;;;5002729;28;21438;-67
2022/09/19 01:55:26;;;;;;;14.13;2.08;;;11.30;99.90;;;;;;4999464;28;20120;-67
2022/09/19 01:58:10;;;;;;;17.40;1.95;;;11.30;99.90;;;;;;5003860;28;20121;-67
2022/09/19 02:00:46;;;;;;;18.02;2.45;;;11.30;99.90;;;;;;5000446;28;20117;-67
2022/09/19 02:03:18;;;;;;;24.02;1.90;;;11.30;99.90;;;;;;5005717;28;20120;-67
2022/09/19 02:05:48;;;;;;;14.48;1.70;;;11.30;99.90;;;;;;4997724;28;20053;-67
2022/09/19 02:08:47;;;;;;;21.00;2.22;;;11.30;99.90;;;;;;5004214;28;20042;-67
2022/09/19 02:11:17;;;;;;;16.60;1.48;;;11.30;99.90;;;;;;4999913;28;20052;-67
2022/09/19 02:13:48;;;;;;;21.35;1.90;;;11.30;99.90;;;;;;5008568;28;20399;-67
2022/09/19 02:16:32;;;;;;;24.88;2.33;;;11.30;99.90;;;;;;5000527;28;20141;-67
2022/09/19 02:19:02;;;;;;;20.05;1.85;;;11.20;99.90;;;;;;5006226;28;20413;-67
2022/09/19 02:21:36;;;;;;;13.13;1.63;;;11.30;99.90;;;;;;5007687;28;20072;-67
2022/09/19 02:24:06;;;;;;;16.33;1.58;;;11.20;99.90;;;;;;5006329;28;20049;-67
2022/09/19 02:26:33;;;;;;;20.17;2.17;;;11.20;99.90;;;;;;5007158;28;20050;-66
2022/09/19 02:29:00;;;;;;;22.40;2.20;;;11.20;99.90;;;;;;5005444;28;20054;-67
2022/09/19 02:31:27;;;;;;;11.70;1.92;;;11.20;99.90;;;;;;5003572;28;20116;-67
2022/09/19 02:33:59;;;;;;;16.23;1.40;;;11.20;99.90;;;;;;5000427;28;20041;-67
2022/09/19 02:36:40;;;;;;;17.83;1.73;;;11.30;99.90;;;;;;4999816;28;20069;-67
2022/09/19 02:39:22;;;;;;;21.13;1.73;;;11.30;99.90;;;;;;5002815;28;20099;-67
2022/09/19 02:42:00;;;;;;;15.57;1.70;;;11.20;99.90;;;;;;5003961;28;20401;-67
2022/09/19 02:44:48;;;;;;;24.92;2.38;;;11.20;99.90;;;;;;5002856;28;20409;-67
2022/09/19 02:47:26;;;;;;;16.67;2.03;;;11.20;99.90;;;;;;5004225;28;20057;-67
2022/09/19 02:50:01;;;;;;;16.13;1.73;;;11.20;99.90;;;;;;5000238;28;20057;-67
2022/09/19 02:52:30;;;;;;;17.83;2.13;;;11.20;99.90;;;;;;5006122;28;20451;-67
2022/09/19 02:55:08;;;;;;;24.30;1.80;;;11.10;99.90;;;;;;4989520;28;20472;-67
2022/09/19 02:57:35;;;;;;;14.38;1.88;;;11.10;99.90;;;;;;4979944;28;20334;-67
2022/09/19 03:00:04;;;;;;;20.70;1.42;;;11.10;99.90;;;;;;5004203;28;20038;-66
2022/09/19 03:02:45;;;;;;;17.55;1.73;;;11.10;99.90;;;;;;5001082;28;20050;-67
2022/09/19 03:05:19;;;;;;;17.58;1.80;;;11.00;99.90;;;;;;5004963;28;20089;-67
2022/09/19 03:08:09;;;;;;;22.05;2.42;;;11.10;99.90;;;;;;5007023;28;20331;-67
2022/09/19 03:10:38;;;;;;;18.90;1.85;;;11.10;99.90;;;;;;5002885;28;20056;-67
2022/09/19 03:13:08;;;;;;;19.13;2.40;;;11.10;99.90;;;;;;5005352;28;20074;-67
2022/09/19 03:15:56;;;;;;;21.73;1.73;;;11.10;99.90;;;;;;5004191;28;20042;-66
2022/09/19 03:18:25;;;;;;;16.08;1.92;;;11.10;99.90;;;;;;5006039;28;20368;-66
2022/09/19 03:21:11;;;;;;;22.65;1.83;;;11.00;99.90;;;;;;5003952;28;20034;-66
2022/09/19 03:23:45;;;;;;;14.77;1.30;;;11.00;99.90;;;;;;5001148;28;20131;-66
2022/09/19 03:26:14;;;;;;;15.25;1.75;;;10.90;99.90;;;;;;4986198;28;20045;-66
2022/09/19 03:28:40;;;;;;;21.25;2.05;;;10.90;99.90;;;;;;5007430;28;20147;-66
2022/09/19 03:31:07;;;;;;;15.07;1.50;;;10.80;99.90;;;;;;5001839;28;20034;-67
2022/09/19 03:33:33;;;;;;;15.05;1.65;;;10.80;99.90;;;;;;5004232;28;20050;-66
2022/09/19 03:36:02;;;;;;;16.15;1.73;;;10.80;99.90;;;;;;5004318;28;20065;-66
2022/09/19 03:38:30;;;;;;;16.77;1.90;;;10.80;99.90;;;;;;5004937;28;20054;-66
2022/09/19 03:40:55;;;;;;;14.75;2.08;;;10.70;99.90;;;;;;5001795;28;20038;-66
2022/09/19 03:43:21;;;;;;;17.83;1.70;;;10.70;99.90;;;;;;5001529;28;20578;-66
2022/09/19 03:45:47;;;;;;;15.55;1.95;;;10.70;99.90;;;;;;4997160;28;20043;-67
2022/09/19 03:48:12;;;;;;;17.42;1.90;;;10.70;99.90;;;;;;5001888;28;20037;-66
2022/09/19 03:50:38;;;;;;;19.70;1.85;;;10.70;99.90;;;;;;4996335;28;20057;-66
2022/09/19 03:53:06;;;;;;;15.95;1.63;;;10.70;99.90;;;;;;5003724;28;20069;-66
2022/09/19 03:55:34;;;;;;;24.98;1.90;;;10.80;99.90;;;;;;5001713;28;20520;-66
2022/09/19 03:58:00;;;;;;;14.90;1.70;;;10.80;99.90;;;;;;5001537;28;20066;-66
2022/09/19 04:00:25;;;;;;;22.30;1.83;;;10.90;99.90;;;;;;5003599;28;20513;-66
2022/09/19 04:02:53;;;;;;;16.83;1.83;;;10.90;99.90;;;;;;5002269;28;20052;-66
2022/09/19 04:05:18;;;;;;;20.33;2.17;;;11.00;99.90;;;;;;5003008;28;20045;-66
2022/09/19 04:07:44;;;;;;;20.73;2.08;;;10.90;99.90;;;;;;5006147;28;20042;-66
2022/09/19 04:10:10;;;;;;;17.05;2.03;;;10.90;99.90;;;;;;5005073;28;20453;-66
2022/09/19 04:12:36;;;;;;;22.85;1.77;;;11.00;99.90;;;;;;5007001;28;20038;-65
2022/09/19 04:15:01;;;;;;;14.77;1.80;;;11.00;99.90;;;;;;5005544;28;20128;-65
2022/09/19 04:17:27;;;;;;;17.08;2.00;;;11.10;99.90;;;;;;5006632;28;20050;-65
2022/09/19 04:19:54;;;;;;;21.60;1.98;;;11.00;99.90;;;;;;5002091;28;20398;-65
2022/09/19 04:22:21;;;;;;;14.38;1.63;;;11.00;99.90;;;;;;5004210;28;20073;-66
2022/09/19 04:24:48;;;;;;;14.90;1.55;;;11.10;99.90;;;;;;5000993;28;20058;-66
2022/09/19 04:27:14;;;;;;;14.50;1.33;;;11.00;99.90;;;;;;5004564;28;20054;-66
2022/09/19 04:29:43;;;;;;;19.80;2.00;;;11.00;99.90;;;;;;5002738;28;20121;-66
2022/09/19 04:32:08;;;;;;;13.27;2.20;;;11.00;99.90;;;;;;4997661;28;20125;-66
2022/09/19 04:34:34;;;;;;;21.27;2.58;;;11.00;99.90;;;;;;4996432;28;20365;-66
2022/09/19 04:37:02;;;;;;;18.67;1.90;;;11.10;99.90;;;;;;4993839;28;20045;-66
2022/09/19 04:39:29;;;;;;;20.83;2.70;;;11.00;99.90;;;;;;4997883;28;20042;-66
2022/09/19 04:41:55;;;;;;;17.20;1.95;;;10.90;99.90;;;;;;5001241;28;20050;-66
2022/09/19 04:44:22;;;;;;;13.55;1.40;;;10.90;99.90;;;;;;5003131;28;20041;-66
2022/09/19 04:46:50;;;;;;;16.83;1.65;;;11.00;99.90;;;;;;5002156;28;20056;-66
2022/09/19 04:49:17;;;;;;;16.83;1.52;;;10.90;99.90;;;;;;5003072;28;20038;-66
2022/09/19 04:51:43;;;;;;;21.63;1.48;;;10.90;99.90;;;;;;5003290;28;20042;-66
2022/09/19 04:54:10;;;;;;;14.60;1.70;;;10.90;99.90;;;;;;5001811;28;20110;-66
2022/09/19 04:56:36;;;;;;;15.68;1.60;;;10.80;99.90;;;;;;4997817;28;20058;-66
2022/09/19 04:59:02;;;;;;;18.00;1.88;;;10.80;99.90;;;;;;5007786;28;20052;-66
2022/09/19 05:01:30;;;;;;;13.65;2.08;;;10.80;99.90;;;;;;5001344;28;20045;-66
2022/09/19 05:03:56;;;;;;;17.67;2.15;;;10.80;99.90;;;;;;5004431;28;20600;-65
2022/09/19 05:06:22;;;;;;;17.95;1.77;;;10.80;99.90;;;;;;5003213;28;20043;-66
2022/09/19 05:08:50;;;;;;;20.38;2.05;;;10.80;99.90;;;;;;5003135;28;20124;-65
2022/09/19 05:11:18;;;;;;;18.52;2.03;;;10.80;99.90;;;;;;5004056;28;20157;-66
2022/09/19 05:13:44;;;;;;;17.55;1.80;;;10.80;99.90;;;;;;5005309;28;20050;-66
2022/09/19 05:16:13;;;;;;;19.10;1.85;;;10.80;99.90;;;;;;5007703;28;20436;-66
2022/09/19 05:18:39;;;;;;;18.67;1.70;;;10.80;99.90;;;;;;5003936;28;20049;-66
2022/09/19 05:21:11;;;;;;;26.88;1.75;;;10.80;99.90;;;;;;5001596;28;20073;-66
2022/09/19 05:23:38;;;;;;;20.38;1.40;;;10.80;99.90;;;;;;5000305;28;20161;-66
2022/09/19 05:26:09;;;;;;;16.15;2.13;;;10.70;99.90;;;;;;5004665;28;20047;-66
2022/09/19 05:28:36;;;;;;;19.05;1.80;;;10.70;99.90;;;;;;5001493;28;20041;-66
2022/09/19 05:31:05;;;;;;;17.70;1.73;;;10.70;99.90;;;;;;5002929;28;20046;-66
2022/09/19 05:33:32;;;;;;;17.73;2.33;;;10.70;99.90;;;;;;5000136;28;20065;-66
2022/09/19 05:36:00;;;;;;;15.60;2.40;;;10.80;99.90;;;;;;5004872;28;20034;-66
2022/09/19 05:38:30;;;;;;;19.40;2.67;;;10.80;99.90;;;;;;5007774;28;20517;-65
2022/09/19 05:40:58;;;;;;;15.45;1.80;;;10.90;99.90;;;;;;5007031;28;20076;-66
2022/09/19 05:43:24;;;;;;;13.68;1.42;;;10.90;99.90;;;;;;5006992;28;20125;-66
2022/09/19 05:45:52;;;;;;;15.65;2.10;;;11.00;99.90;;;;;;5001008;28;20046;-66
2022/09/19 05:48:18;;;;;;;21.80;2.10;;;11.00;99.90;;;;;;5000422;28;20037;-66
2022/09/19 05:50:44;;;;;;;15.18;1.90;;;11.10;99.90;;;;;;5011847;28;20037;-67
2022/09/19 05:55:55;;;;;;;19.10;2.03;;;11.00;99.90;;;;;;5005588;28;20137;-66
2022/09/19 05:58:21;;;;;;;22.80;1.50;;;11.10;99.90;;;;;;5005528;28;20046;-67
2022/09/19 06:00:47;;;;;;;15.23;1.77;;;11.00;99.90;;;;;;5008059;28;20386;-67
2022/09/19 06:03:17;;;;;;;11.27;1.25;;;10.80;99.90;;;;;;5003565;28;20058;-67
2022/09/19 06:05:45;;;;;;;16.13;1.60;;;10.90;99.90;;;;;;5005890;28;20077;-67
2022/09/19 06:08:12;;;;;;;13.32;1.40;;;10.70;99.90;;;;;;5004330;28;20093;-67
2022/09/19 06:10:40;;;;;;;16.20;2.10;;;10.80;99.90;;;;;;5004518;28;20045;-67
2022/09/19 06:13:12;;;;;;;14.57;1.73;;;10.70;99.90;;;;;;5002832;28;20042;-67
2022/09/19 06:15:37;;;;;;;17.23;1.65;;;10.70;99.90;;;;;;5002828;28;20080;-67
2022/09/19 06:18:04;;;;;;;15.02;1.45;;;10.70;99.90;;;;;;5001268;28;20469;-67
2022/09/19 06:20:29;;;;;;;13.43;1.60;;;10.70;99.90;;;;;;4999284;28;20493;-67
2022/09/19 06:23:02;;;;;;;17.85;1.58;;;10.80;99.90;;;;;;5003517;28;20045;-67
2022/09/19 06:25:29;;;;;;;9.35;1.27;;;10.80;99.90;;;;;;5003289;28;20057;-67
2022/09/19 06:28:04;;;;;;;14.80;1.42;;;10.80;99.90;;;;;;5004541;28;20040;-67
2022/09/19 06:30:30;;;;;;;15.45;1.50;;;10.80;99.90;;;;;;5000996;28;20049;-67
2022/09/19 06:32:56;;;;;;;15.43;1.10;;;10.80;99.90;;;;;;4999105;28;20502;-66
2022/09/19 06:35:23;;;;;;;15.02;1.30;;;10.90;99.90;;;;;;4999173;28;20057;-67
2022/09/19 06:37:49;;;;;;;18.42;1.83;;;11.00;99.90;;;;;;4998255;28;20137;-67
2022/09/19 06:40:20;;;;;;;14.13;1.55;;;11.00;99.90;;;;;;5001812;28;20177;-67
2022/09/19 06:42:46;;;;;;;11.50;1.35;;;11.10;99.90;;;;;;5004226;28;20073;-67
2022/09/19 06:45:12;;;;;;;16.58;1.30;;;11.10;99.90;;;;;;5000675;28;20038;-67
2022/09/19 06:47:37;;;;;;;12.05;1.67;;;11.10;99.90;;;;;;5005106;28;20472;-67
2022/09/19 06:50:04;;;;;;;9.80;1.40;;;11.10;99.90;;;;;;5006253;28;20042;-67
2022/09/19 06:52:30;;;;;;;14.65;1.23;;;11.10;99.90;;;;;;5005142;28;20036;-67
2022/09/19 06:54:57;;;;;;;14.35;1.52;;;11.00;99.90;;;;;;5006752;28;20574;-67
2022/09/19 06:57:23;;;;;;;12.48;1.33;;;11.10;99.90;;;;;;5003201;28;20046;-67
2022/09/19 06:59:49;;;;;;;12.70;1.48;;;11.10;99.90;;;;;;5006619;28;20042;-67
2022/09/19 07:02:15;;;;;;;11.05;1.60;;;11.30;99.90;;;;;;5001196;28;20049;-67
2022/09/19 07:04:41;;;;;;;17.73;1.50;;;11.30;99.90;;;;;;4997303;28;20035;-67
2022/09/19 07:07:06;;;;;;;7.15;0.85;;;11.40;99.90;;;;;;5001889;28;20037;-67
2022/09/19 07:09:32;;;;;;;14.35;1.70;;;11.60;99.90;;;;;;5007936;28;20509;-67
2022/09/19 07:12:01;;;;;;;12.52;1.50;;;11.70;99.90;;;;;;5005736;28;20387;-67
2022/09/19 07:14:27;;;;;;;11.40;1.20;;;11.90;99.90;;;;;;5004172;28;20115;-67
2022/09/19 07:16:53;;;;;;;10.20;1.50;;;12.10;99.90;;;;;;5001372;28;20046;-67
2022/09/19 07:19:18;;;;;;;9.85;1.45;;;12.20;99.90;;;;;;5004242;28;20048;-67
2022/09/19 07:21:44;;;;;;;12.90;1.77;;;12.30;99.90;;;;;;5005633;28;20049;-67
2022/09/19 07:24:10;;;;;;;11.13;1.40;;;12.40;99.90;;;;;;5006043;28;20049;-67
2022/09/19 07:26:35;;;;;;;10.20;1.40;;;12.60;99.90;;;;;;5001730;28;20081;-67
2022/09/19 07:29:01;;;;;;;9.60;1.50;;;12.60;99.90;;;;;;5004884;28;20128;-67
2022/09/19 07:31:27;;;;;;;12.80;1.75;;;12.80;99.90;;;;;;5003262;28;21497;-67
2022/09/19 07:33:53;;;;;;;9.85;1.17;;;12.90;99.90;;;;;;5006232;28;20046;-67
2022/09/19 07:36:21;;;;;;;11.02;1.45;;;13.30;99.90;;;;;;5004282;28;20046;-67
2022/09/19 07:38:50;;;;;;;25.80;2.97;;;13.70;99.90;;;;;;5006106;28;20038;-64
2022/09/19 07:41:17;;;;;;;45.88;3.40;;;13.90;99.90;;;;;;5003064;28;20030;-64
2022/09/19 07:43:43;;;;;;;30.58;2.65;;;14.20;99.90;;;;;;5002941;28;20401;-64
2022/09/19 07:46:14;;;;;;;241.20;13.82;;;14.80;99.90;;;;;;5001799;28;20034;-64
2022/09/19 07:48:43;;;;;;;57.30;3.25;;;15.10;99.90;;;;;;5001329;28;20166;-64
2022/09/19 07:51:09;;;;;;;12.88;1.88;;;15.30;99.90;;;;;;5004765;28;20049;-65
2022/09/19 07:53:35;;;;;;;67.35;4.47;;;15.30;99.90;;;;;;5000457;28;20379;-66
2022/09/19 07:56:01;;;;;;;9.75;1.33;;;15.70;99.90;;;;;;5005672;28;20040;-65
2022/09/19 07:58:27;;;;;;;9.85;2.20;;;16.10;99.90;;;;;;5003492;28;20113;-64
2022/09/19 08:00:53;;;;;;;10.95;1.60;;;16.20;99.90;;;;;;4983693;28;20209;-65
2022/09/19 08:03:20;;;;;;;12.27;1.40;;;16.20;99.90;;;;;;4999643;28;20037;-64
2022/09/19 08:05:51;;;;;;;14.05;1.90;;;16.20;99.90;;;;;;5002592;28;20342;-64
2022/09/19 08:08:19;;;;;;;8.90;1.60;;;16.50;99.90;;;;;;5002294;28;20050;-64
2022/09/19 08:10:45;;;;;;;13.63;1.75;;;17.10;99.90;;;;;;5002224;28;20617;-65
2022/09/19 08:13:13;;;;;;;12.70;1.42;;;17.80;99.90;;;;;;5000023;28;20093;-65
2022/09/19 08:15:39;;;;;;;12.00;2.10;;;18.30;99.90;;;;;;5001307;28;20124;-65
2022/09/19 08:18:14;;;;;;;11.35;1.60;;;18.70;99.90;;;;;;5002226;28;20125;-65
2022/09/19 08:20:41;;;;;;;16.80;3.15;;;19.10;99.90;;;;;;4995720;28;20086;-65
2022/09/19 08:23:13;;;;;;;8.68;1.65;;;19.40;99.90;;;;;;4999631;28;20334;-64
2022/09/19 08:25:42;;;;;;;11.95;2.25;;;19.70;99.90;;;;;;5001280;28;20042;-65
2022/09/19 08:28:09;;;;;;;10.95;1.63;;;20.00;99.90;;;;;;5003268;28;20150;-65
2022/09/19 08:30:35;;;;;;;9.63;1.75;;;20.50;99.90;;;;;;5003298;28;20516;-65
2022/09/19 08:33:02;;;;;;;11.13;1.83;;;20.70;99.90;;;;;;5000928;28;20354;-65
2022/09/19 08:35:30;;;;;;;11.77;2.25;;;20.80;99.90;;;;;;5001168;28;20406;-65
2022/09/19 08:37:58;;;;;;;7.03;1.60;;;20.90;99.90;;;;;;5000631;28;20041;-65
2022/09/19 08:40:43;;;;;;;11.98;1.85;;;21.00;99.90;;;;;;5001195;28;20026;-65
2022/09/19 08:43:33;;;;;;;9.95;1.63;;;21.10;99.90;;;;;;5002977;28;20045;-65
2022/09/19 08:46:05;;;;;;;7.95;1.60;;;21.10;99.90;;;;;;5003006;28;20056;-65
2022/09/19 08:48:54;;;;;;;11.43;2.00;;;21.00;99.90;;;;;;5002858;28;22153;-65
2022/09/19 08:51:29;;;;;;;10.25;2.10;;;21.20;99.90;;;;;;5001111;28;20574;-65
2022/09/19 08:54:03;;;;;;;11.63;1.90;;;21.50;99.90;;;;;;5002595;28;20038;-65
2022/09/19 08:56:30;;;;;;;13.70;2.40;;;21.50;99.90;;;;;;5001813;28;20053;-65
2022/09/19 08:59:03;;;;;;;12.65;1.73;;;21.50;99.90;;;;;;5000774;28;20034;-65
2022/09/19 09:01:35;;;;;;;12.35;2.08;;;21.40;99.90;;;;;;5002770;28;20026;-65
2022/09/19 09:04:32;;;;;;;12.23;2.20;;;21.40;99.90;;;;;;5001471;28;20041;-65
2022/09/19 09:07:04;;;;;;;10.68;1.83;;;21.80;99.90;;;;;;5002073;28;20406;-65
2022/09/19 09:10:11;;;;;;;11.23;2.03;;;21.70;99.90;;;;;;5001715;28;20034;-65
2022/09/19 09:12:49;;;;;;;12.27;2.53;;;20.60;98.20;;;;;;4938743;28;20039;-66
2022/09/19 09:15:24;;;;;;;9.52;2.28;;;19.50;99.90;;;;;;5000237;28;20053;-68
2022/09/19 09:18:01;;;;;;;7.63;1.20;;;18.40;99.90;;;;;;5006511;28;20042;-68
2022/09/19 09:20:44;;;;;;;8.18;1.00;;;17.60;99.90;;;;;;5002004;28;20045;-67
2022/09/19 09:23:28;;;;;;;7.10;0.85;;;16.60;99.90;;;;;;5003431;28;20046;-67
2022/09/19 09:26:00;;;;;;;;;;;15.80;99.90;;;;;;5003997;28;20465;-67
2022/09/19 09:28:50;;;;;;;6.65;1.20;;;15.20;99.90;;;;;;5002321;28;20395;-67
2022/09/19 09:31:24;;;;;;;7.63;1.27;;;14.70;99.90;;;;;;5003880;28;20401;-67
2022/09/19 09:34:17;;;;;;;8.05;1.63;;;14.40;99.90;;;;;;5001651;28;20054;-67
2022/09/19 09:36:50;;;;;;;12.00;1.83;;;14.30;99.90;;;;;;5004301;28;20078;-67
2022/09/19 09:39:59;;;;;;;13.38;1.60;;;14.20;99.90;;;;;;5006190;28;20096;-67
2022/09/19 09:42:32;;;;;;;9.30;1.33;;;14.30;99.90;;;;;;5005638;28;20490;-67
2022/09/19 09:45:26;;;;;;;9.27;1.30;;;14.90;99.90;;;;;;5007201;28;20129;-66
2022/09/19 09:48:32;;;;;;;7.63;1.20;;;15.90;99.90;;;;;;5006233;28;20091;-67
2022/09/19 09:51:21;;;;;;;9.80;1.52;;;17.20;99.90;;;;;;5000646;28;20104;-67
2022/09/19 09:57:15;;;;;;;10.27;1.50;;;19.00;99.90;;;;;;5001979;28;20309;-67
2022/09/19 10:03:34;;;;;;;14.32;2.20;;;19.70;99.90;;;;;;5001757;28;20311;-67
2022/09/19 10:06:23;;;;;;;11.05;1.88;;;20.00;99.90;;;;;;5003446;28;20045;-67
2022/09/19 10:09:06;;;;;;;7.65;1.40;;;20.60;99.90;;;;;;5005975;28;20046;-67
2022/09/19 10:11:45;;;;;;;7.40;1.20;;;21.00;99.90;;;;;;5000847;28;20077;-67
2022/09/19 10:14:30;;;;;;;9.02;1.42;;;21.00;99.90;;;;;;5008369;28;20096;-67
2022/09/19 10:17:01;;;;;;;9.40;1.65;;;21.00;99.90;;;;;;5004844;28;20038;-67
2022/09/19 10:19:33;;;;;;;9.23;1.48;;;21.00;99.90;;;;;;5005664;28;20034;-66
2022/09/19 10:21:59;;;;;;;8.43;1.40;;;21.00;99.90;;;;;;5005330;28;20049;-66
2022/09/19 10:24:45;;;;;;;7.18;0.93;;;20.90;99.90;;;;;;5008759;28;20152;-66
2022/09/19 10:27:26;;;;;;;4.80;0.82;;;20.80;94.60;;;;;;5006434;28;20058;-66
2022/09/19 10:29:58;;;;;;;5.53;0.98;;;20.80;99.90;;;;;;5002252;28;20068;-67
2022/09/19 10:32:39;;;;;;;4.65;0.75;;;20.80;99.90;;;;;;5006368;28;20088;-67
2022/09/19 10:35:27;;;;;;;5.93;1.40;;;20.80;99.90;;;;;;5000920;28;20169;-67
2022/09/19 10:38:14;;;;;;;5.15;1.02;;;20.40;99.90;;;;;;5000574;28;20057;-67
2022/09/19 10:41:01;;;;;;;8.18;1.50;;;20.20;99.90;;;;;;5010626;28;20524;-67
2022/09/19 10:43:46;;;;;;;11.65;1.52;;;20.60;99.90;;;;;;5006103;28;20038;-67
2022/09/19 10:46:21;;;;;;;;;;;20.80;99.90;;;;;;5005703;28;20147;-67
2022/09/19 10:48:54;;;;;;;6.80;1.55;;;21.00;93.50;;;;;;5006703;28;19924;-66
2022/09/19 10:51:21;;;;;;;8.30;1.90;;;21.20;99.90;;;;;;5001516;28;20501;-67
2022/09/19 10:53:54;;;;;;;9.13;1.77;;;20.80;99.90;;;;;;4996248;28;20062;-66
2022/09/19 10:56:26;;;;;;;10.40;2.33;;;20.10;99.90;;;;;;5002297;28;20545;-67
2022/09/19 10:59:21;;;;;;;4.57;0.98;;;19.20;99.10;;;;;;4998353;28;20536;-67
2022/09/19 11:02:08;;;;;;;10.60;1.58;;;18.40;98.20;;;;;;5009069;28;20061;-67
2022/09/19 11:04:35;;;;;;;12.68;1.95;;;17.80;99.90;;;;;;4999990;28;20391;-66
2022/09/19 11:07:26;;;;;;;10.75;2.28;;;17.40;99.90;;;;;;5005706;28;20486;-66
2022/09/19 11:09:58;;;;;;;11.85;2.20;;;16.90;99.90;;;;;;5018147;28;20489;-67
2022/09/19 11:12:24;;;;;;;9.80;2.05;;;16.70;99.90;;;;;;5005681;28;20125;-67
2022/09/19 11:14:55;;;;;;;13.32;2.55;;;17.30;99.90;;;;;;5004393;28;20164;-67
2022/09/19 11:17:49;;;;;;;10.23;1.98;;;17.70;99.90;;;;;;5006017;28;20104;-67
2022/09/19 11:20:34;;;;;;;;;;;18.60;99.90;;;;;;4982903;28;20058;-67
2022/09/19 11:23:22;;;;;;;10.57;1.70;;;19.10;98.30;;;;;;5001688;28;19917;-67
2022/09/19 11:26:03;;;;;;;14.75;2.25;;;18.90;99.90;;;;;;5001218;28;20050;-66
2022/09/19 11:29:04;;;;;;;13.80;2.05;;;19.20;99.90;;;;;;5005353;28;20699;-67
2022/09/19 11:31:46;;;;;;;13.52;2.10;;;19.50;99.90;;;;;;5016189;28;20490;-67
2022/09/19 11:34:30;;;;;;;14.60;3.15;;;19.00;99.90;;;;;;4997530;28;20058;-67
2022/09/19 11:37:37;;;;;;;12.63;2.38;;;18.50;99.90;;;;;;5006295;28;20462;-66
2022/09/19 11:40:29;;;;;;;12.73;2.70;;;18.00;99.90;;;;;;5003629;28;20034;-67
2022/09/19 11:43:19;;;;;;;14.20;2.58;;;17.70;99.90;;;;;;5002083;28;20066;-66
2022/09/19 11:46:22;;;;;;;13.30;2.30;;;17.40;99.90;;;;;;5000947;28;20483;-67
2022/09/19 11:49:07;;;;;;;14.07;2.50;;;16.80;99.90;;;;;;4976850;28;20147;-67
2022/09/19 11:51:58;;;;;;;11.95;1.80;;;16.30;99.90;;;;;;5000349;28;20117;-67
2022/09/19 11:54:42;;;;;;;10.18;1.40;;;15.80;99.90;;;;;;5008634;28;20034;-67
2022/09/19 11:57:17;;;;;;;7.30;1.20;;;15.10;99.90;;;;;;5006528;28;20386;-68
2022/09/19 12:00:03;;;;;;;;;;;14.60;99.90;;;;;;5002572;28;20050;-67
2022/09/19 12:03:06;;;;;;;8.60;1.10;;;14.20;99.90;;;;;;5002849;28;19997;-68
2022/09/19 12:05:53;;;;;;;9.18;1.42;;;13.80;99.90;;;;;;5000315;28;20401;-70
2022/09/19 12:08:43;;;;;;;11.18;1.42;;;13.50;99.90;;;;;;5000653;28;20057;-70
2022/09/19 12:11:17;;;;;;;12.15;1.60;;;13.20;99.90;;;;;;4992925;28;20057;-70
2022/09/19 12:14:01;;;;;;;14.90;1.80;;;12.90;99.90;;;;;;5001407;28;20119;-69
2022/09/19 12:16:45;;;;;;;12.60;1.88;;;12.80;99.90;;;;;;4999598;28;20092;-68
2022/09/19 12:19:17;;;;;;;8.88;1.65;;;12.80;99.90;;;;;;5003078;28;20058;-66
2022/09/19 12:21:49;;;;;;;12.45;1.65;;;12.70;99.90;;;;;;5002704;28;20201;-66
2022/09/19 12:24:53;;;;;;;12.77;1.83;;;12.60;99.90;;;;;;5004888;28;20139;-66
2022/09/19 12:27:52;;;;;;;9.05;1.42;;;12.80;99.90;;;;;;5002760;28;20065;-66
2022/09/19 12:30:20;;;;;;;10.00;1.33;;;13.00;99.90;;;;;;4940787;28;20085;-66
2022/09/19 12:33:09;;;;;;;16.27;2.80;;;13.20;99.90;;;;;;4998854;28;20510;-66
2022/09/19 12:35:48;;;;;;;12.88;1.85;;;13.50;99.90;;;;;;4986311;28;20051;-67
2022/09/19 12:38:40;;;;;;;10.68;2.05;;;13.90;99.90;;;;;;5002939;28;20117;-67
2022/09/19 12:41:14;;;;;;;10.82;2.00;;;14.50;99.90;;;;;;5000135;28;20478;-67
2022/09/19 12:44:15;;;;;;;9.52;1.30;;;15.50;99.90;;;;;;5005508;28;20081;-68
2022/09/19 12:47:16;;;;;;;14.30;1.80;;;16.20;99.90;;;;;;5006092;28;20042;-68
2022/09/19 12:49:54;;;;;;;13.45;2.28;;;17.20;99.90;;;;;;5000153;28;20050;-68
2022/09/19 12:52:26;;;;;;;14.73;2.67;;;18.20;99.90;;;;;;4999566;28;20136;-68
2022/09/19 12:54:52;;;;;;;11.63;1.83;;;19.10;99.90;;;;;;5001293;28;20038;-68
2022/09/19 12:57:35;;;;;;;12.27;2.40;;;19.60;99.90;;;;;;4997161;28;20050;-69
2022/09/19 13:00:01;;;;;;;16.48;2.30;;;20.10;99.90;;;;;;5001874;28;20037;-69
2022/09/19 13:02:34;;;;;;;14.70;2.30;;;20.40;99.90;;;;;;5001704;28;20042;-69
2022/09/19 13:05:39;;;;;;;13.15;1.92;;;20.00;99.90;;;;;;5001540;28;20057;-69
2022/09/19 13:08:09;;;;;;;11.60;1.83;;;19.30;99.90;;;;;;5002128;28;20030;-69
2022/09/19 13:10:49;;;;;;;13.18;2.28;;;19.00;99.90;;;;;;5001243;28;20133;-68
2022/09/19 13:13:33;;;;;;;7.85;1.50;;;18.10;99.90;;;;;;5002400;28;20112;-69
2022/09/19 13:16:13;;;;;;;11.80;1.90;;;16.90;99.90;;;;;;5002856;28;20780;-69
2022/09/19 13:24:20;;;;;;;10.38;1.67;;;14.40;99.90;;;;;;5000470;28;20528;-68
2022/09/19 13:26:54;;;;;;;9.52;1.30;;;14.10;99.90;;;;;;5001297;28;20453;-68
2022/09/19 13:29:26;;;;;;;9.80;1.30;;;13.90;99.90;;;;;;5000289;28;20149;-68
2022/09/19 13:31:59;;;;;;;8.82;1.30;;;14.00;99.90;;;;;;4991335;28;20069;-69
2022/09/19 13:35:00;;;;;;;8.40;2.13;;;14.40;99.90;;;;;;5002960;28;20057;-69